createdAt,value
2017-03-12T00:00:43.412Z,1008.09
2017-03-12T00:01:43.439Z,1008.08
2017-03-12T00:02:43.471Z,1008.04
2017-03-12T00:03:43.502Z,1008.05
2017-03-12T00:04:43.560Z,1008.04
2017-03-12T00:05:43.565Z,1008.06
2017-03-12T00:06:43.611Z,1008.03
2017-03-12T00:07:43.626Z,1008.05
2017-03-12T00:08:43.657Z,1008
2017-03-12T00:09:43.688Z,1008.05
2017-03-12T00:10:43.728Z,1008
2017-03-12T00:11:43.756Z,1008.03
2017-03-12T00:12:43.795Z,1008.01
2017-03-12T00:13:43.811Z,1007.98
2017-03-12T00:14:43.842Z,1007.99
2017-03-12T00:15:43.872Z,1007.97
2017-03-12T00:16:43.904Z,1007.95
2017-03-12T00:17:43.933Z,1007.97
2017-03-12T00:18:43.964Z,1007.98
2017-03-12T00:19:43.995Z,1007.95
2017-03-12T00:20:44.041Z,1007.9
2017-03-12T00:21:44.058Z,1007.95
2017-03-12T00:22:44.093Z,1007.9
2017-03-12T00:23:44.120Z,1007.92
2017-03-12T00:24:44.157Z,1007.94
2017-03-12T00:25:44.186Z,1007.92
2017-03-12T00:26:44.212Z,1007.95
2017-03-12T00:27:44.256Z,1007.93
2017-03-12T00:28:44.277Z,1007.93
2017-03-12T00:29:44.304Z,1007.95
2017-03-12T00:30:44.355Z,1007.92
2017-03-12T00:31:44.364Z,1007.91
2017-03-12T00:32:44.395Z,1007.92
2017-03-12T00:33:44.443Z,1007.92
2017-03-12T00:34:44.473Z,1007.93
2017-03-12T00:35:44.492Z,1007.89
2017-03-12T00:36:44.518Z,1007.88
2017-03-12T00:37:44.550Z,1007.84
2017-03-12T00:38:44.581Z,1007.81
2017-03-12T00:39:44.609Z,1007.82
2017-03-12T00:40:44.641Z,1007.75
2017-03-12T00:41:44.671Z,1007.73
2017-03-12T00:42:44.703Z,1007.76
2017-03-12T00:43:44.732Z,1007.77
2017-03-12T00:44:44.763Z,1007.77
2017-03-12T00:45:44.792Z,1007.81
2017-03-12T00:46:44.824Z,1007.81
2017-03-12T00:47:44.855Z,1007.79
2017-03-12T00:48:44.887Z,1007.8
2017-03-12T00:49:44.916Z,1007.81
2017-03-12T00:50:44.948Z,1007.8
2017-03-12T00:51:44.977Z,1007.8
2017-03-12T00:52:45.008Z,1007.85
2017-03-12T00:53:45.038Z,1007.83
2017-03-12T00:54:45.068Z,1007.84
2017-03-12T00:55:45.100Z,1007.83
2017-03-12T00:56:45.131Z,1007.81
2017-03-12T00:57:45.160Z,1007.85
2017-03-12T00:58:45.192Z,1007.82
2017-03-12T00:59:45.222Z,1007.83
2017-03-12T01:00:45.253Z,1007.8
2017-03-12T01:01:45.281Z,1007.76
2017-03-12T01:02:45.315Z,1007.76
2017-03-12T01:03:45.345Z,1007.76
2017-03-12T01:04:45.375Z,1007.76
2017-03-12T01:05:45.406Z,1007.75
2017-03-12T01:06:45.435Z,1007.74
2017-03-12T01:07:45.466Z,1007.71
2017-03-12T01:08:45.499Z,1007.71
2017-03-12T01:09:45.527Z,1007.66
2017-03-12T01:10:45.558Z,1007.7
2017-03-12T01:11:45.588Z,1007.67
2017-03-12T01:12:45.619Z,1007.65
2017-03-12T01:13:45.648Z,1007.7
2017-03-12T01:14:45.679Z,1007.69
2017-03-12T01:15:45.709Z,1007.69
2017-03-12T01:16:45.741Z,1007.63
2017-03-12T01:17:45.771Z,1007.61
2017-03-12T01:18:45.800Z,1007.62
2017-03-12T01:19:45.831Z,1007.66
2017-03-12T01:20:45.863Z,1007.64
2017-03-12T01:21:45.890Z,1007.62
2017-03-12T01:22:45.923Z,1007.6
2017-03-12T01:23:45.953Z,1007.6
2017-03-12T01:24:45.984Z,1007.6
2017-03-12T01:25:46.013Z,1007.65
2017-03-12T01:26:46.042Z,1007.61
2017-03-12T01:27:46.075Z,1007.61
2017-03-12T01:28:46.104Z,1007.63
2017-03-12T01:29:46.134Z,1007.63
2017-03-12T01:30:46.165Z,1007.61
2017-03-12T01:31:46.197Z,1007.56
2017-03-12T01:32:46.227Z,1007.57
2017-03-12T01:33:46.257Z,1007.57
2017-03-12T01:34:46.285Z,1007.55
2017-03-12T01:35:46.318Z,1007.59
2017-03-12T01:36:46.344Z,1007.55
2017-03-12T01:37:46.377Z,1007.54
2017-03-12T01:38:46.408Z,1007.51
2017-03-12T01:39:46.438Z,1007.48
2017-03-12T01:40:46.466Z,1007.5
2017-03-12T01:41:46.498Z,1007.49
2017-03-12T01:42:46.528Z,1007.47
2017-03-12T01:43:46.559Z,1007.44
2017-03-12T01:44:46.587Z,1007.44
2017-03-12T01:45:46.621Z,1007.45
2017-03-12T01:46:46.650Z,1007.45
2017-03-12T01:47:46.677Z,1007.43
2017-03-12T01:48:46.708Z,1007.36
2017-03-12T01:49:46.740Z,1007.4
2017-03-12T01:50:46.769Z,1007.4
2017-03-12T01:51:46.800Z,1007.4
2017-03-12T01:52:46.831Z,1007.41
2017-03-12T01:53:46.862Z,1007.4
2017-03-12T01:54:46.893Z,1007.41
2017-03-12T01:55:46.921Z,1007.35
2017-03-12T01:56:46.950Z,1007.38
2017-03-12T01:57:46.982Z,1007.33
2017-03-12T01:58:47.011Z,1007.3
2017-03-12T01:59:47.043Z,1007.3
2017-03-12T02:00:47.073Z,1007.23
2017-03-12T02:01:47.101Z,1007.26
2017-03-12T02:02:47.130Z,1007.23
2017-03-12T02:03:47.166Z,1007.23
2017-03-12T02:04:47.194Z,1007.23
2017-03-12T02:05:47.223Z,1007.2
2017-03-12T02:06:47.253Z,1007.19
2017-03-12T02:07:47.285Z,1007.14
2017-03-12T02:08:47.330Z,1007.17
2017-03-12T02:09:47.347Z,1007.15
2017-03-12T02:10:47.380Z,1007.17
2017-03-12T02:11:47.404Z,1007.17
2017-03-12T02:12:47.435Z,1007.17
2017-03-12T02:13:47.464Z,1007.14
2017-03-12T02:14:47.495Z,1007.14
2017-03-12T02:15:47.526Z,1007.12
2017-03-12T02:16:47.557Z,1007.14
2017-03-12T02:17:47.585Z,1007.13
2017-03-12T02:18:47.625Z,1007.1
2017-03-12T02:19:47.645Z,1007.11
2017-03-12T02:20:47.674Z,1007.12
2017-03-12T02:21:47.706Z,1007.09
2017-03-12T02:22:47.735Z,1007.07
2017-03-12T02:23:47.776Z,1007.03
2017-03-12T02:24:47.795Z,1007.06
2017-03-12T02:25:47.825Z,1007.04
2017-03-12T02:26:47.856Z,1007.02
2017-03-12T02:27:47.886Z,1007.01
2017-03-12T02:28:47.919Z,1007
2017-03-12T02:29:47.946Z,1006.99
2017-03-12T02:30:47.976Z,1007.02
2017-03-12T02:31:48.005Z,1006.99
2017-03-12T02:32:48.034Z,1006.96
2017-03-12T02:33:48.067Z,1006.97
2017-03-12T02:34:48.097Z,1006.99
2017-03-12T02:35:48.125Z,1007.01
2017-03-12T02:36:48.157Z,1006.96
2017-03-12T02:37:48.185Z,1006.94
2017-03-12T02:38:48.217Z,1006.93
2017-03-12T02:39:48.248Z,1006.92
2017-03-12T02:40:48.278Z,1006.88
2017-03-12T02:41:48.309Z,1006.85
2017-03-12T02:42:48.339Z,1006.87
2017-03-12T02:43:48.367Z,1006.84
2017-03-12T02:44:48.397Z,1006.83
2017-03-12T02:45:48.428Z,1006.8
2017-03-12T02:46:48.458Z,1006.83
2017-03-12T02:47:48.486Z,1006.82
2017-03-12T02:48:48.518Z,1006.8
2017-03-12T02:49:48.554Z,1006.79
2017-03-12T02:50:48.577Z,1006.82
2017-03-12T02:51:48.606Z,1006.82
2017-03-12T02:52:48.638Z,1006.81
2017-03-12T02:53:48.665Z,1006.87
2017-03-12T02:54:48.708Z,1006.82
2017-03-12T02:55:48.726Z,1006.85
2017-03-12T02:56:48.758Z,1006.82
2017-03-12T02:57:48.787Z,1006.81
2017-03-12T02:58:48.817Z,1006.82
2017-03-12T02:59:48.847Z,1006.85
2017-03-12T03:00:48.876Z,1006.83
2017-03-12T03:01:48.905Z,1006.88
2017-03-12T03:02:48.937Z,1006.89
2017-03-12T03:03:48.966Z,1006.9
2017-03-12T03:04:48.994Z,1006.92
2017-03-12T03:05:49.024Z,1006.92
2017-03-12T03:06:49.056Z,1006.89
2017-03-12T03:07:49.085Z,1006.92
2017-03-12T03:08:49.116Z,1006.92
2017-03-12T03:09:49.143Z,1006.91
2017-03-12T03:10:49.177Z,1006.89
2017-03-12T03:11:49.204Z,1006.92
2017-03-12T03:12:49.234Z,1006.88
2017-03-12T03:13:49.265Z,1006.92
2017-03-12T03:14:49.294Z,1006.91
2017-03-12T03:15:49.324Z,1006.91
2017-03-12T03:16:49.354Z,1006.95
2017-03-12T03:17:49.385Z,1006.96
2017-03-12T03:18:49.415Z,1006.93
2017-03-12T03:19:49.444Z,1006.94
2017-03-12T03:20:49.473Z,1006.95
2017-03-12T03:21:49.503Z,1006.94
2017-03-12T03:22:49.534Z,1006.97
2017-03-12T03:23:49.562Z,1007.01
2017-03-12T03:24:49.594Z,1006.99
2017-03-12T03:25:49.624Z,1007
2017-03-12T03:26:49.653Z,1007.04
2017-03-12T03:27:49.685Z,1007.04
2017-03-12T03:28:49.712Z,1007.02
2017-03-12T03:29:49.742Z,1007.03
2017-03-12T03:30:49.770Z,1007.02
2017-03-12T03:31:49.802Z,1007.06
2017-03-12T03:32:49.830Z,1007.02
2017-03-12T03:33:49.859Z,1007.01
2017-03-12T03:34:49.891Z,1007.02
2017-03-12T03:35:49.921Z,1007.01
2017-03-12T03:36:49.951Z,1007.04
2017-03-12T03:37:49.980Z,1007.01
2017-03-12T03:38:50.011Z,1007
2017-03-12T03:39:50.042Z,1007.02
2017-03-12T03:40:50.071Z,1007.01
2017-03-12T03:41:50.102Z,1006.99
2017-03-12T03:42:50.131Z,1007.01
2017-03-12T03:43:50.159Z,1007.02
2017-03-12T03:44:50.190Z,1006.98
2017-03-12T03:45:50.218Z,1006.96
2017-03-12T03:46:50.251Z,1007.01
2017-03-12T03:47:50.281Z,1006.97
2017-03-12T03:48:50.321Z,1007.02
2017-03-12T03:49:50.339Z,1006.99
2017-03-12T03:50:50.368Z,1007.03
2017-03-12T03:51:50.399Z,1007.01
2017-03-12T03:52:50.427Z,1007.04
2017-03-12T03:53:50.475Z,1007.05
2017-03-12T03:54:50.489Z,1007.04
2017-03-12T03:55:50.517Z,1007.11
2017-03-12T03:56:50.548Z,1007.06
2017-03-12T03:57:50.577Z,1007.08
2017-03-12T03:58:50.608Z,1007.07
2017-03-12T03:59:50.637Z,1007.07
2017-03-12T04:00:50.668Z,1007.05
2017-03-12T04:01:50.696Z,1007.04
2017-03-12T04:02:50.727Z,1007.11
2017-03-12T04:03:50.769Z,1007.09
2017-03-12T04:04:50.789Z,1007.06
2017-03-12T04:05:50.816Z,1007.08
2017-03-12T04:06:50.866Z,1007.14
2017-03-12T04:07:50.875Z,1007.1
2017-03-12T04:08:50.908Z,1007.1
2017-03-12T04:09:50.939Z,1007.1
2017-03-12T04:10:50.965Z,1007.13
2017-03-12T04:11:50.997Z,1007.12
2017-03-12T04:12:51.027Z,1007.13
2017-03-12T04:13:51.056Z,1007.08
2017-03-12T04:14:51.086Z,1007.11
2017-03-12T04:15:51.118Z,1007.11
2017-03-12T04:16:51.147Z,1007.09
2017-03-12T04:17:51.179Z,1007.1
2017-03-12T04:18:51.208Z,1007.06
2017-03-12T04:19:51.238Z,1007.08
2017-03-12T04:20:51.266Z,1007.07
2017-03-12T04:21:51.296Z,1007.08
2017-03-12T04:22:51.327Z,1007.05
2017-03-12T04:23:51.359Z,1007.06
2017-03-12T04:24:51.387Z,1007.06
2017-03-12T04:25:51.416Z,1007.09
2017-03-12T04:26:51.444Z,1007.09
2017-03-12T04:27:51.477Z,1007.09
2017-03-12T04:28:51.503Z,1007.12
2017-03-12T04:29:51.554Z,1007.11
2017-03-12T04:30:51.565Z,1007.11
2017-03-12T04:31:51.595Z,1007.14
2017-03-12T04:32:51.623Z,1007.11
2017-03-12T04:33:51.655Z,1007.14
2017-03-12T04:34:51.685Z,1007.11
2017-03-12T04:35:51.714Z,1007.1
2017-03-12T04:36:51.744Z,1007.14
2017-03-12T04:37:51.773Z,1007.16
2017-03-12T04:38:51.803Z,1007.13
2017-03-12T04:39:51.834Z,1007.11
2017-03-12T04:40:51.864Z,1007.07
2017-03-12T04:41:51.893Z,1007.06
2017-03-12T04:42:51.923Z,1007.04
2017-03-12T04:43:51.956Z,1007.06
2017-03-12T04:44:51.983Z,1007.03
2017-03-12T04:45:52.013Z,1007
2017-03-12T04:46:52.040Z,1007.04
2017-03-12T04:47:52.072Z,1006.99
2017-03-12T04:48:52.101Z,1007.01
2017-03-12T04:49:52.134Z,1007.04
2017-03-12T04:50:52.163Z,1007.06
2017-03-12T04:51:52.190Z,1007.03
2017-03-12T04:52:52.222Z,1007.02
2017-03-12T04:53:52.252Z,1007.04
2017-03-12T04:54:52.281Z,1007.04
2017-03-12T04:55:52.310Z,1007.03
2017-03-12T04:56:52.340Z,1007.05
2017-03-12T04:57:52.369Z,1007.09
2017-03-12T04:58:52.398Z,1007.07
2017-03-12T04:59:52.430Z,1007.07
2017-03-12T05:00:52.459Z,1007.11
2017-03-12T05:01:52.490Z,1007.06
2017-03-12T05:02:52.518Z,1007.13
2017-03-12T05:03:52.547Z,1007.12
2017-03-12T05:04:52.577Z,1007.16
2017-03-12T05:05:52.607Z,1007.2
2017-03-12T05:06:52.635Z,1007.19
2017-03-12T05:07:52.668Z,1007.2
2017-03-12T05:08:52.696Z,1007.17
2017-03-12T05:09:52.730Z,1007.21
2017-03-12T05:10:52.755Z,1007.19
2017-03-12T05:11:52.786Z,1007.22
2017-03-12T05:12:52.816Z,1007.2
2017-03-12T05:13:52.844Z,1007.22
2017-03-12T05:14:52.878Z,1007.2
2017-03-12T05:15:52.906Z,1007.2
2017-03-12T05:16:52.933Z,1007.19
2017-03-12T05:17:52.962Z,1007.22
2017-03-12T05:18:52.992Z,1007.25
2017-03-12T05:19:53.022Z,1007.19
2017-03-12T05:20:53.049Z,1007.25
2017-03-12T05:21:53.082Z,1007.25
2017-03-12T05:22:53.113Z,1007.24
2017-03-12T05:23:53.158Z,1007.25
2017-03-12T05:24:53.169Z,1007.28
2017-03-12T05:25:53.200Z,1007.3
2017-03-12T05:26:53.228Z,1007.3
2017-03-12T05:27:53.257Z,1007.29
2017-03-12T05:28:53.303Z,1007.31
2017-03-12T05:29:53.323Z,1007.29
2017-03-12T05:30:53.346Z,1007.33
2017-03-12T05:31:53.376Z,1007.31
2017-03-12T05:32:53.405Z,1007.29
2017-03-12T05:33:53.441Z,1007.27
2017-03-12T05:34:53.462Z,1007.29
2017-03-12T05:35:53.494Z,1007.28
2017-03-12T05:36:53.521Z,1007.28
2017-03-12T05:37:53.554Z,1007.31
2017-03-12T05:38:53.594Z,1007.26
2017-03-12T05:39:53.610Z,1007.27
2017-03-12T05:40:53.640Z,1007.29
2017-03-12T05:41:53.668Z,1007.31
2017-03-12T05:42:53.699Z,1007.31
2017-03-12T05:43:53.735Z,1007.3
2017-03-12T05:44:53.757Z,1007.31
2017-03-12T05:45:53.789Z,1007.32
2017-03-12T05:46:53.819Z,1007.32
2017-03-12T05:47:53.846Z,1007.31
2017-03-12T05:48:53.876Z,1007.32
2017-03-12T05:49:53.907Z,1007.32
2017-03-12T05:50:53.937Z,1007.32
2017-03-12T05:51:53.968Z,1007.32
2017-03-12T05:52:53.997Z,1007.33
2017-03-12T05:53:54.026Z,1007.36
2017-03-12T05:54:54.060Z,1007.35
2017-03-12T05:55:54.090Z,1007.34
2017-03-12T05:56:54.116Z,1007.37
2017-03-12T05:57:54.147Z,1007.35
2017-03-12T05:58:54.178Z,1007.33
2017-03-12T05:59:54.206Z,1007.38
2017-03-12T06:00:54.240Z,1007.37
2017-03-12T06:01:54.265Z,1007.35
2017-03-12T06:02:54.297Z,1007.37
2017-03-12T06:03:54.325Z,1007.37
2017-03-12T06:04:54.356Z,1007.37
2017-03-12T06:05:54.386Z,1007.36
2017-03-12T06:06:54.419Z,1007.34
2017-03-12T06:07:54.446Z,1007.39
2017-03-12T06:08:54.476Z,1007.38
2017-03-12T06:09:54.508Z,1007.33
2017-03-12T06:10:54.535Z,1007.39
2017-03-12T06:11:54.567Z,1007.4
2017-03-12T06:12:54.595Z,1007.37
2017-03-12T06:13:54.628Z,1007.41
2017-03-12T06:14:54.675Z,1007.38
2017-03-12T06:15:54.688Z,1007.38
2017-03-12T06:16:54.717Z,1007.38
2017-03-12T06:17:54.747Z,1007.37
2017-03-12T06:18:54.777Z,1007.34
2017-03-12T06:19:54.809Z,1007.35
2017-03-12T06:20:54.839Z,1007.37
2017-03-12T06:21:54.869Z,1007.34
2017-03-12T06:22:54.900Z,1007.31
2017-03-12T06:23:54.931Z,1007.33
2017-03-12T06:24:54.962Z,1007.32
2017-03-12T06:25:54.990Z,1007.32
2017-03-12T06:26:55.023Z,1007.34
2017-03-12T06:27:55.053Z,1007.35
2017-03-12T06:28:55.083Z,1007.39
2017-03-12T06:29:55.117Z,1007.38
2017-03-12T06:30:55.144Z,1007.38
2017-03-12T06:31:55.176Z,1007.38
2017-03-12T06:32:55.205Z,1007.38
2017-03-12T06:33:55.235Z,1007.39
2017-03-12T06:34:55.272Z,1007.39
2017-03-12T06:35:55.298Z,1007.37
2017-03-12T06:36:55.327Z,1007.33
2017-03-12T06:37:55.377Z,1007.37
2017-03-12T06:38:55.391Z,1007.4
2017-03-12T06:39:55.422Z,1007.34
2017-03-12T06:40:55.450Z,1007.38
2017-03-12T06:41:55.482Z,1007.33
2017-03-12T06:42:55.514Z,1007.34
2017-03-12T06:43:55.545Z,1007.34
2017-03-12T06:44:55.575Z,1007.37
2017-03-12T06:45:55.606Z,1007.41
2017-03-12T06:46:55.638Z,1007.37
2017-03-12T06:47:55.670Z,1007.37
2017-03-12T06:48:55.701Z,1007.39
2017-03-12T06:49:55.731Z,1007.38
2017-03-12T06:50:55.780Z,1007.42
2017-03-12T06:51:55.797Z,1007.49
2017-03-12T06:52:55.825Z,1007.37
2017-03-12T06:53:55.855Z,1007.41
2017-03-12T06:54:55.887Z,1007.39
2017-03-12T06:55:55.917Z,1007.42
2017-03-12T06:56:55.948Z,1007.4
2017-03-12T06:57:55.978Z,1007.41
2017-03-12T06:58:56.010Z,1007.43
2017-03-12T06:59:56.041Z,1007.44
2017-03-12T07:00:56.073Z,1007.44
2017-03-12T07:01:56.104Z,1007.45
2017-03-12T07:02:56.136Z,1007.46
2017-03-12T07:03:56.166Z,1007.47
2017-03-12T07:04:56.200Z,1007.48
2017-03-12T07:05:56.230Z,1007.47
2017-03-12T07:06:56.262Z,1007.48
2017-03-12T07:07:56.294Z,1007.5
2017-03-12T07:08:56.325Z,1007.53
2017-03-12T07:09:56.357Z,1007.49
2017-03-12T07:10:56.388Z,1007.51
2017-03-12T07:11:56.419Z,1007.51
2017-03-12T07:12:56.452Z,1007.49
2017-03-12T07:13:56.482Z,1007.55
2017-03-12T07:14:56.516Z,1007.55
2017-03-12T07:15:56.549Z,1007.53
2017-03-12T07:16:56.581Z,1007.56
2017-03-12T07:17:56.610Z,1007.54
2017-03-12T07:18:56.643Z,1007.54
2017-03-12T07:19:56.675Z,1007.49
2017-03-12T07:20:56.707Z,1007.51
2017-03-12T07:21:56.738Z,1007.52
2017-03-12T07:22:56.773Z,1007.51
2017-03-12T07:23:56.803Z,1007.51
2017-03-12T07:24:56.836Z,1007.5
2017-03-12T07:25:56.869Z,1007.49
2017-03-12T07:26:56.903Z,1007.42
2017-03-12T07:27:56.933Z,1007.48
2017-03-12T07:28:56.967Z,1007.48
2017-03-12T07:29:56.998Z,1007.5
2017-03-12T07:30:57.032Z,1007.48
2017-03-12T07:31:57.065Z,1007.44
2017-03-12T07:32:57.096Z,1007.49
2017-03-12T07:33:57.128Z,1007.48
2017-03-12T07:34:57.164Z,1007.47
2017-03-12T07:35:57.194Z,1007.49
2017-03-12T07:36:57.227Z,1007.5
2017-03-12T07:37:57.263Z,1007.52
2017-03-12T07:38:57.296Z,1007.51
2017-03-12T07:39:57.329Z,1007.54
2017-03-12T07:40:57.362Z,1007.53
2017-03-12T07:41:57.397Z,1007.51
2017-03-12T07:42:57.430Z,1007.52
2017-03-12T07:43:57.465Z,1007.53
2017-03-12T07:44:57.504Z,1007.54
2017-03-12T07:45:57.533Z,1007.49
2017-03-12T07:46:57.566Z,1007.48
2017-03-12T07:47:57.604Z,1007.51
2017-03-12T07:48:57.638Z,1007.49
2017-03-12T07:49:57.674Z,1007.49
2017-03-12T07:50:57.709Z,1007.54
2017-03-12T07:51:57.745Z,1007.56
2017-03-12T07:52:57.782Z,1007.55
2017-03-12T07:53:57.817Z,1007.62
2017-03-12T07:54:57.856Z,1007.57
2017-03-12T07:55:57.890Z,1007.54
2017-03-12T07:56:57.927Z,1007.55
2017-03-12T07:57:57.963Z,1007.56
2017-03-12T07:58:57.999Z,1007.52
2017-03-12T07:59:58.060Z,1007.5
2017-03-12T08:00:58.071Z,1007.53
2017-03-12T08:01:58.109Z,1007.52
2017-03-12T08:02:58.144Z,1007.49
2017-03-12T08:03:58.182Z,1007.52
2017-03-12T08:04:58.219Z,1007.53
2017-03-12T08:05:58.255Z,1007.52
2017-03-12T08:06:58.295Z,1007.52
2017-03-12T08:07:58.325Z,1007.5
2017-03-12T08:08:58.365Z,1007.55
2017-03-12T08:09:58.400Z,1007.5
2017-03-12T08:10:58.437Z,1007.55
2017-03-12T08:11:58.473Z,1007.53
2017-03-12T08:12:58.513Z,1007.52
2017-03-12T08:13:58.546Z,1007.48
2017-03-12T08:14:58.581Z,1007.51
2017-03-12T08:15:58.619Z,1007.53
2017-03-12T08:16:58.653Z,1007.55
2017-03-12T08:17:58.691Z,1007.57
2017-03-12T08:18:58.724Z,1007.56
2017-03-12T08:19:58.761Z,1007.59
2017-03-12T08:20:58.799Z,1007.58
2017-03-12T08:21:58.838Z,1007.56
2017-03-12T08:22:58.872Z,1007.6
2017-03-12T08:23:58.911Z,1007.6
2017-03-12T08:24:58.948Z,1007.58
2017-03-12T08:25:58.987Z,1007.6
2017-03-12T08:26:59.024Z,1007.58
2017-03-12T08:27:59.063Z,1007.59
2017-03-12T08:28:59.100Z,1007.6
2017-03-12T08:29:59.137Z,1007.63
2017-03-12T08:30:59.180Z,1007.62
2017-03-12T08:31:59.215Z,1007.58
2017-03-12T08:32:59.259Z,1007.61
2017-03-12T08:33:59.294Z,1007.55
2017-03-12T08:34:59.336Z,1007.61
2017-03-12T08:35:59.396Z,1007.56
2017-03-12T08:36:59.415Z,1007.58
2017-03-12T08:37:59.453Z,1007.64
2017-03-12T08:38:59.497Z,1007.61
2017-03-12T08:39:59.537Z,1007.61
2017-03-12T08:40:59.578Z,1007.61
2017-03-12T08:41:59.620Z,1007.62
2017-03-12T08:42:59.661Z,1007.58
2017-03-12T08:43:59.736Z,1007.58
2017-03-12T08:44:59.746Z,1007.58
2017-03-12T08:45:59.786Z,1007.53
2017-03-12T08:46:59.835Z,1007.53
2017-03-12T08:47:59.870Z,1007.56
2017-03-12T08:48:59.914Z,1007.55
2017-03-12T08:49:59.958Z,1007.54
2017-03-12T08:50:59.998Z,1007.5
2017-03-12T08:52:00.042Z,1007.52
2017-03-12T08:53:00.086Z,1007.52
2017-03-12T08:54:00.134Z,1007.51
2017-03-12T08:55:00.171Z,1007.49
2017-03-12T08:56:00.215Z,1007.49
2017-03-12T08:57:00.258Z,1007.46
2017-03-12T08:58:00.302Z,1007.48
2017-03-12T08:59:00.346Z,1007.48
2017-03-12T09:00:00.392Z,1007.47
2017-03-12T09:01:00.440Z,1007.49
2017-03-12T09:02:00.480Z,1007.47
2017-03-12T09:03:00.523Z,1007.45
2017-03-12T09:04:00.571Z,1007.44
2017-03-12T09:05:00.615Z,1007.46
2017-03-12T09:06:00.660Z,1007.45
2017-03-12T09:07:00.705Z,1007.45
2017-03-12T09:08:00.750Z,1007.44
2017-03-12T09:09:00.797Z,1007.43
2017-03-12T09:10:00.843Z,1007.41
2017-03-12T09:11:00.886Z,1007.42
2017-03-12T09:12:00.932Z,1007.36
2017-03-12T09:13:00.979Z,1007.35
2017-03-12T09:14:01.023Z,1007.38
2017-03-12T09:15:01.069Z,1007.36
2017-03-12T09:16:01.117Z,1007.36
2017-03-12T09:17:01.163Z,1007.35
2017-03-12T09:18:01.207Z,1007.36
2017-03-12T09:19:01.256Z,1007.33
2017-03-12T09:20:01.301Z,1007.34
2017-03-12T09:21:01.347Z,1007.38
2017-03-12T09:22:01.394Z,1007.41
2017-03-12T09:23:01.442Z,1007.33
2017-03-12T09:24:01.487Z,1007.39
2017-03-12T09:25:01.534Z,1007.39
2017-03-12T09:26:01.583Z,1007.33
2017-03-12T09:27:01.628Z,1007.36
2017-03-12T09:28:01.676Z,1007.37
2017-03-12T09:29:01.723Z,1007.32
2017-03-12T09:30:01.771Z,1007.28
2017-03-12T09:31:01.817Z,1007.31
2017-03-12T09:32:01.865Z,1007.31
2017-03-12T09:33:01.913Z,1007.27
2017-03-12T09:34:01.961Z,1007.29
2017-03-12T09:35:02.008Z,1007.36
2017-03-12T09:36:02.072Z,1007.27
2017-03-12T09:37:02.113Z,1007.33
2017-03-12T09:38:02.152Z,1007.24
2017-03-12T09:39:02.201Z,1007.27
2017-03-12T09:40:02.246Z,1007.29
2017-03-12T09:41:02.295Z,1007.25
2017-03-12T09:42:02.346Z,1007.27
2017-03-12T09:43:02.393Z,1007.24
2017-03-12T09:44:02.452Z,1007.23
2017-03-12T09:45:02.487Z,1007.22
2017-03-12T09:46:02.535Z,1007.21
2017-03-12T09:47:02.584Z,1007.2
2017-03-12T09:48:02.633Z,1007.23
2017-03-12T09:49:02.682Z,1007.29
2017-03-12T09:50:02.732Z,1007.3
2017-03-12T09:51:02.779Z,1007.31
2017-03-12T09:52:02.827Z,1007.24
2017-03-12T09:53:02.877Z,1007.24
2017-03-12T09:54:02.926Z,1007.26
2017-03-12T09:55:02.974Z,1007.27
2017-03-12T09:56:03.022Z,1007.27
2017-03-12T09:57:03.069Z,1007.23
2017-03-12T09:58:03.118Z,1007.33
2017-03-12T09:59:03.169Z,1007.27
2017-03-12T10:00:03.218Z,1007.27
2017-03-12T10:01:03.264Z,1007.24
2017-03-12T10:02:03.316Z,1007.25
2017-03-12T10:03:03.365Z,1007.27
2017-03-12T10:04:03.415Z,1007.24
2017-03-12T10:05:03.461Z,1007.23
2017-03-12T10:06:03.512Z,1007.2
2017-03-12T10:07:03.561Z,1007.28
2017-03-12T10:08:03.610Z,1007.25
2017-03-12T10:09:03.658Z,1007.24
2017-03-12T10:10:03.709Z,1007.26
2017-03-12T10:11:03.758Z,1007.25
2017-03-12T10:12:03.809Z,1007.27
2017-03-12T10:13:03.857Z,1007.32
2017-03-12T10:14:03.907Z,1007.26
2017-03-12T10:15:03.969Z,1007.23
2017-03-12T10:16:04.007Z,1007.17
2017-03-12T10:17:04.056Z,1007.17
2017-03-12T10:18:04.105Z,1007.2
2017-03-12T10:19:04.155Z,1007.15
2017-03-12T10:20:04.206Z,1007.18
2017-03-12T10:21:04.255Z,1007.15
2017-03-12T10:22:04.306Z,1007.22
2017-03-12T10:23:04.355Z,1007.19
2017-03-12T10:24:04.406Z,1007.19
2017-03-12T10:25:04.455Z,1007.26
2017-03-12T10:26:04.511Z,1007.15
2017-03-12T10:27:04.555Z,1007.1
2017-03-12T10:28:04.604Z,1007.1
2017-03-12T10:29:04.657Z,1007.13
2017-03-12T10:30:04.707Z,1007.15
2017-03-12T10:31:04.756Z,1007.04
2017-03-12T10:32:04.809Z,1007.02
2017-03-12T10:33:04.881Z,1007.04
2017-03-12T10:34:04.909Z,1007.1
2017-03-12T10:35:04.957Z,1007.09
2017-03-12T10:36:05.013Z,1007.03
2017-03-12T10:37:05.061Z,1007.06
2017-03-12T10:38:05.111Z,1007.01
2017-03-12T10:39:05.159Z,1006.96
2017-03-12T10:40:05.208Z,1006.99
2017-03-12T10:41:05.262Z,1007.08
2017-03-12T10:42:05.311Z,1007.1
2017-03-12T10:43:05.362Z,1006.94
2017-03-12T10:44:05.412Z,1006.97
2017-03-12T10:45:05.463Z,1006.95
2017-03-12T10:46:05.510Z,1006.92
2017-03-12T10:47:05.592Z,1007
2017-03-12T10:48:05.611Z,1006.95
2017-03-12T10:49:05.662Z,1006.94
2017-03-12T10:50:05.713Z,1006.96
2017-03-12T10:51:05.782Z,1006.92
2017-03-12T10:52:05.814Z,1006.96
2017-03-12T10:53:05.861Z,1006.94
2017-03-12T10:54:05.910Z,1006.98
2017-03-12T10:55:05.963Z,1006.96
2017-03-12T10:56:06.012Z,1006.95
2017-03-12T10:57:06.059Z,1006.98
2017-03-12T10:58:06.109Z,1006.92
2017-03-12T10:59:06.160Z,1006.97
2017-03-12T11:00:06.208Z,1006.87
2017-03-12T11:01:06.259Z,1006.96
2017-03-12T11:02:06.306Z,1006.92
2017-03-12T11:03:06.359Z,1006.94
2017-03-12T11:04:06.407Z,1006.95
2017-03-12T11:05:06.454Z,1006.92
2017-03-12T11:06:06.506Z,1006.93
2017-03-12T11:07:06.553Z,1006.94
2017-03-12T11:08:06.604Z,1006.94
2017-03-12T11:09:06.653Z,1006.91
2017-03-12T11:10:06.701Z,1006.92
2017-03-12T11:11:06.751Z,1006.96
2017-03-12T11:12:06.798Z,1006.88
2017-03-12T11:13:06.848Z,1006.89
2017-03-12T11:14:06.899Z,1006.89
2017-03-12T11:15:06.944Z,1006.94
2017-03-12T11:16:06.995Z,1006.83
2017-03-12T11:17:07.049Z,1006.86
2017-03-12T11:18:07.091Z,1006.81
2017-03-12T11:19:07.145Z,1006.76
2017-03-12T11:20:07.188Z,1006.75
2017-03-12T11:21:07.235Z,1006.7
2017-03-12T11:22:07.285Z,1006.82
2017-03-12T11:23:07.330Z,1006.84
2017-03-12T11:24:07.380Z,1006.89
2017-03-12T11:25:07.429Z,1006.88
2017-03-12T11:26:07.473Z,1006.86
2017-03-12T11:27:07.519Z,1006.84
2017-03-12T11:28:07.567Z,1006.77
2017-03-12T11:29:07.610Z,1006.79
2017-03-12T11:30:07.660Z,1006.76
2017-03-12T11:31:07.703Z,1006.77
2017-03-12T11:32:07.752Z,1006.76
2017-03-12T11:33:07.798Z,1006.75
2017-03-12T11:34:07.843Z,1006.75
2017-03-12T11:35:07.892Z,1006.75
2017-03-12T11:36:07.944Z,1006.72
2017-03-12T11:37:07.982Z,1006.66
2017-03-12T11:38:08.026Z,1006.63
2017-03-12T11:39:08.092Z,1006.66
2017-03-12T11:40:08.117Z,1006.65
2017-03-12T11:41:08.163Z,1006.67
2017-03-12T11:42:08.209Z,1006.68
2017-03-12T11:43:08.252Z,1006.6
2017-03-12T11:44:08.298Z,1006.5
2017-03-12T11:45:08.344Z,1006.5
2017-03-12T11:46:08.385Z,1006.48
2017-03-12T11:47:08.430Z,1006.55
2017-03-12T11:48:08.472Z,1006.46
2017-03-12T11:49:08.516Z,1006.51
2017-03-12T11:50:08.563Z,1006.69
2017-03-12T11:51:08.602Z,1006.57
2017-03-12T11:52:08.648Z,1006.53
2017-03-12T11:53:08.692Z,1006.48
2017-03-12T11:54:08.734Z,1006.36
2017-03-12T11:55:08.780Z,1006.4
2017-03-12T11:56:08.820Z,1006.41
2017-03-12T11:57:08.862Z,1006.41
2017-03-12T11:58:08.902Z,1006.35
2017-03-12T11:59:08.953Z,1006.4
2017-03-12T12:00:08.988Z,1006.34
2017-03-12T12:01:09.031Z,1006.32
2017-03-12T12:02:09.071Z,1006.48
2017-03-12T12:03:09.114Z,1006.3
2017-03-12T12:04:09.156Z,1006.31
2017-03-12T12:05:09.195Z,1006.3
2017-03-12T12:06:09.237Z,1006.26
2017-03-12T12:07:09.279Z,1006.28
2017-03-12T12:08:09.321Z,1006.28
2017-03-12T12:09:09.373Z,1006.33